createdAt,value
2023-04-25T00:01:14.865Z,96411.19
2023-04-25T00:09:38.442Z,96366.91
2023-04-25T00:18:01.415Z,96324.63
2023-04-25T00:26:24.887Z,96297.23
2023-04-25T00:34:47.827Z,96258.55
2023-04-25T00:43:10.875Z,96189.70
2023-04-25T00:51:35.812Z,96120.59
2023-04-25T00:59:59.973Z,96035.55
2023-04-25T01:08:26.611Z,95896.63
2023-04-25T01:16:49.849Z,95765.77
2023-04-25T01:25:13.084Z,95657.55
2023-04-25T01:33:36.736Z,95554.45
2023-04-25T01:42:01.257Z,95494.98
2023-04-25T01:50:24.466Z,95455.12
2023-04-25T01:58:48.256Z,95413.00
2023-04-25T02:07:17.082Z,95379.33
2023-04-25T02:15:49.694Z,95326.21
2023-04-25T02:24:15.965Z,95308.58
2023-04-25T02:32:41.104Z,95333.11
2023-04-25T02:41:06.629Z,95370.00
2023-04-25T02:49:29.965Z,95421.32
2023-04-25T02:57:53.322Z,95484.36
2023-04-25T03:06:26.716Z,95495.84
2023-04-25T03:14:49.714Z,95496.58
2023-04-25T03:23:12.918Z,95504.48
2023-04-25T03:31:38.618Z,95501.82
2023-04-25T03:40:02.244Z,95493.05
2023-04-25T03:48:39.566Z,95522.75
2023-04-25T03:57:03.679Z,95546.95
2023-04-25T04:05:29.611Z,95600.06
2023-04-25T04:13:53.418Z,95827.07
2023-04-25T04:22:16.822Z,95915.57
2023-04-25T04:30:42.222Z,95791.52
2023-04-25T04:39:07.669Z,95701.23
2023-04-25T04:47:51.670Z,95672.80
2023-04-25T04:56:34.451Z,95672.42
2023-04-25T05:05:16.890Z,95688.05
2023-04-25T05:14:02.241Z,95744.64
2023-04-25T05:22:34.147Z,95816.65
2023-04-25T05:31:11.944Z,95859.07
2023-04-25T05:39:53.546Z,95919.25
2023-04-25T05:48:48.701Z,95957.59
2023-04-25T05:57:30.005Z,95968.65
2023-04-25T06:05:53.525Z,95938.67
2023-04-25T06:14:16.865Z,95920.25
2023-04-25T06:22:43.729Z,95927.75
2023-04-25T06:31:07.733Z,95922.54
2023-04-25T06:39:31.487Z,95931.54
2023-04-25T06:47:54.798Z,95945.27
2023-04-25T06:56:18.129Z,95924.73
2023-04-25T07:04:50.622Z,95902.61
2023-04-25T07:13:14.833Z,95904.35
2023-04-25T07:21:38.775Z,95901.11
2023-04-25T07:30:04.078Z,95879.38
2023-04-25T07:38:27.781Z,95873.19
2023-04-25T07:46:52.129Z,95858.56
2023-04-25T07:55:16.639Z,95831.31
2023-04-25T08:04:06.545Z,95830.74
2023-04-25T08:12:41.834Z,95857.59
2023-04-25T08:21:05.448Z,95843.82
2023-04-25T08:29:30.178Z,95818.27
2023-04-25T08:37:53.764Z,95785.63
2023-04-25T08:46:21.207Z,95759.27
2023-04-25T08:55:15.271Z,95737.47
2023-04-25T09:03:39.153Z,95725.81
2023-04-25T09:12:02.785Z,95721.37
2023-04-25T09:20:27.713Z,95732.77
2023-04-25T09:29:09.132Z,95729.17
2023-04-25T09:37:36.457Z,95653.33
2023-04-25T09:46:37.826Z,95566.38
2023-04-25T09:55:04.930Z,95519.14
2023-04-25T10:03:33.215Z,95469.94
2023-04-25T10:12:18.084Z,95430.96
2023-04-25T10:20:41.702Z,95408.95
2023-04-25T10:29:05.520Z,95364.63
2023-04-25T10:37:28.701Z,95313.89
2023-04-25T10:45:54.761Z,95273.46
2023-04-25T10:54:20.569Z,95249.18
2023-04-25T11:02:54.453Z,95227.00
2023-04-25T11:11:20.973Z,95219.90
2023-04-25T11:19:44.095Z,95225.23
2023-04-25T11:28:07.035Z,95237.92
2023-04-25T11:36:31.847Z,95273.17
2023-04-25T11:44:55.040Z,95270.67
2023-04-25T11:53:19.277Z,95284.35
2023-04-25T12:01:51.131Z,95266.20
2023-04-25T12:10:17.238Z,95248.73
2023-04-25T12:18:40.937Z,95275.67
2023-04-25T12:27:07.223Z,95317.52
2023-04-25T12:35:30.677Z,95323.84
2023-04-25T12:43:54.604Z,95306.38
2023-04-25T12:52:17.855Z,95322.84
2023-04-25T13:00:41.617Z,95364.33
2023-04-25T13:09:05.996Z,95428.20
2023-04-25T13:17:29.029Z,95498.22
2023-04-25T13:25:53.634Z,95509.29
2023-04-25T13:34:17.280Z,95531.02
2023-04-25T13:42:41.294Z,95539.27
2023-04-25T13:51:04.502Z,95526.36
2023-04-25T13:59:29.010Z,95530.10
2023-04-25T14:07:53.113Z,95533.71
2023-04-25T14:16:18.211Z,95503.25
2023-04-25T14:24:41.601Z,95454.38
2023-04-25T14:33:04.751Z,95392.01
2023-04-25T14:41:30.427Z,95338.06
2023-04-25T14:50:11.557Z,95303.77
2023-04-25T14:58:34.898Z,95264.20
2023-04-25T15:06:58.395Z,95213.39
2023-04-25T15:15:26.524Z,95185.27
2023-04-25T15:23:50.298Z,95169.35
2023-04-25T15:32:13.504Z,95170.35
2023-04-25T15:40:36.661Z,95172.33
2023-04-25T15:48:59.644Z,95138.42
2023-04-25T15:57:23.022Z,95104.50
2023-04-25T16:05:45.972Z,95108.25
2023-04-25T16:14:09.217Z,95105.30
2023-04-25T16:22:32.650Z,95056.52
2023-04-25T16:30:55.628Z,95033.46
2023-04-25T16:39:19.121Z,95013.17
2023-04-25T16:47:42.037Z,95015.53
2023-04-25T16:56:07.677Z,95027.93
2023-04-25T17:04:30.706Z,95043.17
2023-04-25T17:12:54.796Z,95047.55
2023-04-25T17:21:18.594Z,94972.52
2023-04-25T17:29:41.906Z,94899.70
2023-04-25T17:38:04.906Z,94848.16
2023-04-25T17:46:29.547Z,94797.17
2023-04-25T17:54:52.580Z,94756.80
2023-04-25T18:03:16.649Z,94737.91
2023-04-25T18:11:39.757Z,94704.69
2023-04-25T18:20:02.857Z,94649.70
2023-04-25T18:28:26.350Z,94605.86
2023-04-25T18:36:49.581Z,94570.52
2023-04-25T18:45:12.731Z,94554.77
2023-04-25T18:53:35.748Z,94537.58
2023-04-25T19:02:00.701Z,94508.06
2023-04-25T19:10:25.433Z,94463.42
2023-04-25T19:18:48.747Z,94438.48
2023-04-25T19:27:11.843Z,94418.34
2023-04-25T19:35:34.843Z,94407.88
2023-04-25T19:44:01.035Z,94398.64
2023-04-25T19:52:24.082Z,94391.09
2023-04-25T20:00:47.412Z,94381.67
2023-04-25T20:09:11.821Z,94385.89
2023-04-25T20:17:34.930Z,94390.19
2023-04-25T20:25:58.127Z,94396.07
2023-04-25T20:34:22.056Z,94396.08
2023-04-25T20:42:46.179Z,94392.10
2023-04-25T20:51:10.521Z,94392.67
2023-04-25T20:59:33.775Z,94388.63
2023-04-25T21:07:57.664Z,94386.88
2023-04-25T21:16:21.308Z,94363.45
2023-04-25T21:24:44.406Z,94355.43
2023-04-25T21:33:07.442Z,94365.70
2023-04-25T21:41:31.112Z,94381.70
2023-04-25T21:49:54.007Z,94395.74
2023-04-25T21:58:17.002Z,94404.47
2023-04-25T22:06:39.947Z,94418.31
2023-04-25T22:15:03.802Z,94427.07
2023-04-25T22:23:26.905Z,94429.48
2023-04-25T22:31:49.978Z,94433.96
2023-04-25T22:40:13.516Z,94434.69
2023-04-25T22:48:36.731Z,94445.36
2023-04-25T22:57:00.213Z,94454.95
2023-04-25T23:05:24.853Z,94461.77
2023-04-25T23:13:48.191Z,94450.81
2023-04-25T23:22:11.221Z,94445.44
2023-04-25T23:30:34.450Z,94452.75
2023-04-25T23:38:58.171Z,94485.10
2023-04-25T23:47:21.488Z,94494.21
2023-04-25T23:55:44.527Z,94478.61
